METAR AND TAF INFORMATION
METAR FOR UGKO
ADDS - METARS form results

(1724 UTC 29 September 2020)
Data provider http://aviationweather.gov/metar/data/
 
METAR text: UGKO 291700Z 08026G39KT CAVOK 22/09 Q1012 NOSIG
Conditions at: UGKO (KOPITNARI , GE) observed 1700 UTC 29 September 2020
Temperature: 22.0°C (72°F)
Dewpoint: 9.0°C (48°F) [RH = 43%]
Pressure (altimeter): 29.88 inches Hg (1012.0 mb)
Winds: from the E (80 degrees) at 30 MPH (26 knots; 13.4 m/s)
gusting to 45 MPH (39 knots; 20.1 m/s)
Visibility: 6 or more miles (10+ km)
Ceiling: ceiling and visibility are OK
Clouds: unknown
Weather: no significant weather observed at this time

METAR text: UGKO 291630Z 08026G39KT CAVOK 23/09 Q1012 NOSIG
Conditions at: UGKO (KOPITNARI , GE) observed 1630 UTC 29 September 2020
Temperature: 23.0°C (73°F)
Dewpoint: 9.0°C (48°F) [RH = 41%]
Pressure (altimeter): 29.88 inches Hg (1012.0 mb)
Winds: from the E (80 degrees) at 30 MPH (26 knots; 13.4 m/s)
gusting to 45 MPH (39 knots; 20.1 m/s)
Visibility: 6 or more miles (10+ km)
Ceiling: ceiling and visibility are OK
Clouds: unknown
Weather: no significant weather observed at this time

Forecast for: UGKO (KOPITNARI , GE)
Text: TAF UGKO 291700Z 2918/3018 08025G35KT CAVOK TX27/3012Z TN19/3002Z
Forecast period: 1800 UTC 29 September 2020 to 1800 UTC 30 September 2020
Forecast type: FROM: standard forecast or significant change
Winds: from the E (80 degrees) at 29 MPH (25 knots; 12.9 m/s)
gusting to 40 MPH (35 knots; 18.0 m/s)
Visibility: 6 or more miles (10+ km)
Ceiling: unknown
Clouds: missing
Weather: no significant weather forecast for this period
Text: TEMPO 3004/3010 07030G50KT
Forecast period: 0400 to 1000 UTC 30 September 2020
Forecast type: TEMPORARY: The following changes expected for less than half the time period
Winds: from the ENE (70 degrees) at 34 MPH (30 knots; 15.4 m/s)
gusting to 57 MPH (50 knots; 25.7 m/s)
Visibility: missing
Ceiling: unknown
Clouds: missing
Weather: no significant weather forecast for this period

 AIRPORT MAP

 RUNWAY INFORMATION
Runway 08 Runway length 8202 ft Runway width 144 ft
Runway elevation 197 ft Runway displaced threshold 0 ft Runway heading 81
Runway 26 Runway length 8202 ft Runway width 144 ft
Runway elevation 223 ft Runway displaced threshold 0 ft Runway heading 261

 AIRPORT FREQUENCIES
Type TWR Name KUTAISI TW Frequency 125.5 MHZ

 AIRPORT NEAR NAVIGATION AIDS
Type VOR-DME Name Kutaisi Frequency 113600 KHZ
Type NDB Name Kutaisi Frequency 477 KHZ
Type NDB Name Kutaisi Frequency 842 KHZ



Powered by Virtual Airlines Manager [v2.6.2]